Time;durP1;ratioP1;P1;durP2;ratioP2;P2;SDS_P1;SDS_P2;PMS_P1;PMS_P2;Temp;Humidity;BMP_temperature;BMP_pressure;BME280_temperature;BME280_humidity;BME280_pressure;Samples;Min_cycle;Max_cycle;Signal;HPM_P1;HPM_P2
2021/04/23 00:01:27;;;;;;;15.67;7.30;;;7.30;98.30;;;;;;5093858;23;20454;-80
2021/04/23 00:03:31;;;;;;;20.17;7.90;;;7.30;98.30;;;;;;5100927;23;20552;-80
2021/04/23 00:05:33;;;;;;;18.90;8.60;;;7.30;98.30;;;;;;5093447;23;20777;-80
2021/04/23 00:07:35;;;;;;;18.47;8.10;;;7.30;98.30;;;;;;5092912;23;20454;-80
2021/04/23 00:09:38;;;;;;;17.17;6.73;;;7.20;98.30;;;;;;5093231;23;20465;-80
2021/04/23 00:11:43;;;;;;;13.73;7.30;;;7.20;98.30;;;;;;5092963;23;20535;-80
2021/04/23 00:13:45;;;;;;;14.50;7.17;;;7.20;98.30;;;;;;5093186;23;20970;-80
2021/04/23 00:15:48;;;;;;;12.43;7.10;;;7.20;98.30;;;;;;5093188;23;20970;-80
2021/04/23 00:17:51;;;;;;;17.60;7.30;;;7.30;98.30;;;;;;5092304;23;20489;-80
2021/04/23 00:19:53;;;;;;;17.90;6.83;;;7.30;98.30;;;;;;5093599;23;20490;-80
2021/04/23 00:21:57;;;;;;;15.63;7.13;;;7.30;98.30;;;;;;5093871;23;20476;-80
2021/04/23 00:23:59;;;;;;;15.93;6.93;;;7.40;98.30;;;;;;5093503;23;20490;-81
2021/04/23 00:26:02;;;;;;;20.60;7.50;;;7.40;98.30;;;;;;5091983;23;20776;-81
2021/04/23 00:28:11;;;;;;;20.80;6.97;;;7.40;98.30;;;;;;5091235;23;20453;-81
2021/04/23 00:30:13;;;;;;;17.93;6.70;;;7.30;98.30;;;;;;5091820;23;20464;-80
2021/04/23 00:34:35;;;;;;;14.03;6.73;;;7.20;98.30;;;;;;5091572;23;20760;-80
2021/04/23 00:36:37;;;;;;;17.73;7.73;;;7.10;98.30;;;;;;5091339;23;21267;-79
2021/04/23 00:38:41;;;;;;;14.63;8.10;;;7.10;98.30;;;;;;5098999;23;20781;-79
2021/04/23 00:40:48;;;;;;;13.47;7.53;;;7.10;98.30;;;;;;5091492;23;20545;-80
2021/04/23 00:42:51;;;;;;;20.90;8.80;;;7.10;98.30;;;;;;5095692;23;20549;-78
2021/04/23 00:44:53;;;;;;;16.63;7.30;;;7.10;98.30;;;;;;5110729;23;20462;-79
2021/04/23 00:46:54;;;;;;;17.90;9.60;;;7.10;98.30;;;;;;5110406;23;20866;-80
2021/04/23 00:48:57;;;;;;;18.17;7.10;;;7.10;98.30;;;;;;5107296;23;20461;-80
2021/04/23 00:51:06;;;;;;;16.90;7.10;;;7.10;98.30;;;;;;5104111;23;20825;-80
2021/04/23 00:53:10;;;;;;;16.03;8.07;;;7.10;98.30;;;;;;5096191;23;20457;-80
2021/04/23 00:55:13;;;;;;;17.60;6.77;;;7.00;98.30;;;;;;5094991;23;20519;-80
2021/04/23 00:57:15;;;;;;;16.43;7.40;;;7.00;98.30;;;;;;5095624;23;20455;-80
2021/04/23 00:59:17;;;;;;;16.53;6.83;;;7.00;98.30;;;;;;5102745;23;20466;-80
2021/04/23 01:01:23;;;;;;;21.10;7.00;;;7.00;98.30;;;;;;5094839;23;20456;-80
2021/04/23 01:03:28;;;;;;;15.40;7.80;;;7.00;98.30;;;;;;5103779;23;20450;-80
2021/04/23 01:05:35;;;;;;;22.03;8.27;;;7.00;98.30;;;;;;5095059;23;20489;-80
2021/04/23 01:07:43;;;;;;;21.27;7.47;;;6.90;98.30;;;;;;5095192;23;20568;-83
2021/04/23 01:09:44;;;;;;;13.43;7.97;;;6.90;98.30;;;;;;5103963;23;20444;-83
2021/04/23 01:11:48;;;;;;;15.33;6.97;;;7.00;98.30;;;;;;5102625;23;20445;-83
2021/04/23 01:13:50;;;;;;;15.70;9.07;;;7.00;98.30;;;;;;5095330;23;20454;-82
2021/04/23 01:15:52;;;;;;;19.10;7.40;;;7.00;98.30;;;;;;5095035;23;20542;-82
2021/04/23 01:17:54;;;;;;;15.03;6.97;;;7.00;98.30;;;;;;5102183;23;20492;-83
2021/04/23 01:19:56;;;;;;;16.33;7.40;;;7.00;98.30;;;;;;5095592;23;20504;-83
2021/04/23 01:22:00;;;;;;;14.80;7.73;;;7.10;98.30;;;;;;5096332;23;21024;-83
2021/04/23 01:24:04;;;;;;;13.57;7.57;;;7.00;98.30;;;;;;5096017;23;20509;-83
2021/04/23 01:26:12;;;;;;;21.27;6.90;;;7.00;98.30;;;;;;5103492;23;20484;-83
2021/04/23 01:28:14;;;;;;;19.97;8.47;;;7.00;98.30;;;;;;5100335;23;20448;-83
2021/04/23 01:30:20;;;;;;;12.37;6.50;;;7.00;98.30;;;;;;5103157;23;20456;-84
2021/04/23 01:32:22;;;;;;;14.73;7.70;;;7.00;98.30;;;;;;5094738;23;20460;-83
2021/04/23 01:34:27;;;;;;;13.83;7.03;;;7.00;98.30;;;;;;5104101;23;20443;-84
2021/04/23 01:36:29;;;;;;;15.77;7.37;;;7.00;98.30;;;;;;5099722;23;20466;-82
2021/04/23 01:38:33;;;;;;;10.87;6.97;;;7.00;98.30;;;;;;5092821;23;20968;-83
2021/04/23 01:40:35;;;;;;;16.33;7.60;;;7.00;98.30;;;;;;5094619;23;21154;-84
2021/04/23 01:42:38;;;;;;;16.90;7.20;;;7.00;98.30;;;;;;5094152;23;20462;-82
2021/04/23 01:44:40;;;;;;;14.20;8.37;;;6.90;98.30;;;;;;5093813;23;20464;-83
2021/04/23 01:46:42;;;;;;;17.70;7.73;;;6.90;98.30;;;;;;5101336;23;20959;-84
2021/04/23 01:48:45;;;;;;;21.60;7.23;;;6.90;98.30;;;;;;5100664;23;20458;-84
2021/04/23 01:50:48;;;;;;;13.83;6.63;;;6.90;98.30;;;;;;5102112;23;21046;-83
2021/04/23 01:52:50;;;;;;;16.17;6.60;;;6.90;98.30;;;;;;5102481;23;20451;-83
2021/04/23 01:54:53;;;;;;;19.13;7.30;;;6.90;98.30;;;;;;5102015;23;20459;-83
2021/04/23 01:56:56;;;;;;;12.50;6.73;;;6.90;98.30;;;;;;5093723;23;20468;-84
2021/04/23 01:58:58;;;;;;;20.33;6.90;;;6.90;98.30;;;;;;5092817;23;20468;-82
2021/04/23 02:01:00;;;;;;;14.87;6.40;;;6.90;98.30;;;;;;5093992;23;20553;-83
2021/04/23 02:03:04;;;;;;;13.23;6.20;;;6.90;98.30;;;;;;5096496;23;20492;-82
2021/04/23 02:05:09;;;;;;;15.47;6.33;;;6.80;98.30;;;;;;5102488;23;20478;-83
2021/04/23 02:07:11;;;;;;;13.73;7.10;;;6.80;98.30;;;;;;5101128;23;20459;-82
2021/04/23 02:09:13;;;;;;;19.37;8.33;;;6.80;98.30;;;;;;5101331;23;20472;-82
2021/04/23 02:11:18;;;;;;;9.50;5.67;;;6.80;98.30;;;;;;5101279;23;20446;-82
2021/04/23 02:13:22;;;;;;;14.93;6.33;;;6.80;98.30;;;;;;5093288;23;20451;-81
2021/04/23 02:15:29;;;;;;;12.13;6.00;;;6.80;98.30;;;;;;5101277;23;20442;-82
2021/04/23 02:17:31;;;;;;;21.80;8.43;;;6.80;98.30;;;;;;5099750;23;20746;-82
2021/04/23 02:19:33;;;;;;;13.30;5.63;;;6.90;98.30;;;;;;5100050;23;20456;-81
2021/04/23 02:21:36;;;;;;;15.23;7.50;;;6.90;98.30;;;;;;5102561;23;20461;-83
2021/04/23 02:23:41;;;;;;;12.10;5.50;;;6.90;98.30;;;;;;5102914;23;20488;-83
2021/04/23 02:25:43;;;;;;;12.77;6.27;;;6.90;98.30;;;;;;5102498;23;20443;-82
2021/04/23 02:27:47;;;;;;;18.30;5.93;;;7.00;98.30;;;;;;5100518;23;20794;-82
2021/04/23 02:29:49;;;;;;;18.70;7.00;;;7.00;98.30;;;;;;5100602;23;20981;-83
2021/04/23 02:31:53;;;;;;;12.90;5.60;;;7.00;98.30;;;;;;5092364;23;20997;-82
2021/04/23 02:33:59;;;;;;;15.57;6.30;;;7.00;98.30;;;;;;5102232;23;20512;-82
2021/04/23 02:36:02;;;;;;;11.20;5.40;;;7.00;98.30;;;;;;5101766;23;20450;-82
2021/04/23 02:38:05;;;;;;;15.97;5.30;;;7.00;98.30;;;;;;5100521;23;20866;-82
2021/04/23 02:40:10;;;;;;;10.57;5.50;;;7.00;98.30;;;;;;5102864;23;20482;-82
2021/04/23 02:42:12;;;;;;;11.07;5.13;;;7.10;98.30;;;;;;5098638;23;20446;-81
2021/04/23 02:44:15;;;;;;;15.70;5.27;;;7.20;98.30;;;;;;5095992;23;20464;-83
2021/04/23 02:46:20;;;;;;;10.20;5.03;;;7.10;98.30;;;;;;5101275;23;20460;-83
2021/04/23 02:48:25;;;;;;;15.00;5.67;;;7.20;98.30;;;;;;5097558;23;20458;-82
2021/04/23 02:50:28;;;;;;;14.13;5.20;;;7.20;98.30;;;;;;5101587;23;20465;-82
2021/04/23 02:52:30;;;;;;;14.83;5.37;;;7.30;98.30;;;;;;5101691;23;20465;-84
2021/04/23 02:54:32;;;;;;;9.70;5.57;;;7.30;98.30;;;;;;5101921;23;20476;-83
2021/04/23 02:56:35;;;;;;;13.63;5.77;;;7.30;98.30;;;;;;5110383;23;20464;-83
2021/04/23 02:58:37;;;;;;;8.60;4.53;;;7.30;98.30;;;;;;5110790;23;20528;-83
2021/04/23 03:00:43;;;;;;;9.87;4.57;;;7.30;98.30;;;;;;5103079;23;20490;-83
2021/04/23 03:02:45;;;;;;;12.70;4.93;;;7.20;98.30;;;;;;5109253;23;20458;-84
2021/04/23 03:04:47;;;;;;;11.23;5.40;;;7.30;98.30;;;;;;5104599;23;20477;-84
2021/04/23 03:06:50;;;;;;;10.80;4.87;;;7.30;98.30;;;;;;5096293;23;20520;-84
2021/04/23 03:08:52;;;;;;;13.30;5.13;;;7.30;98.30;;;;;;5104975;23;20845;-84
2021/04/23 03:10:57;;;;;;;16.63;5.73;;;7.30;98.30;;;;;;5105735;23;20457;-84
2021/04/23 03:13:05;;;;;;;14.63;5.20;;;7.30;98.30;;;;;;5104799;23;20453;-84
2021/04/23 03:15:09;;;;;;;14.70;5.40;;;7.40;98.30;;;;;;5104302;23;20454;-84
2021/04/23 03:17:12;;;;;;;13.10;5.20;;;7.40;98.30;;;;;;5103779;23;20468;-83
2021/04/23 03:19:15;;;;;;;11.60;5.03;;;7.40;98.30;;;;;;5102320;23;20454;-83
2021/04/23 03:21:21;;;;;;;13.13;4.63;;;7.40;98.30;;;;;;5096341;23;20489;-84
2021/04/23 03:23:23;;;;;;;17.83;5.60;;;7.40;98.30;;;;;;5103988;23;20454;-82
2021/04/23 03:25:25;;;;;;;13.67;5.17;;;7.40;98.30;;;;;;5104412;23;20458;-83
2021/04/23 03:27:27;;;;;;;12.93;5.17;;;7.40;98.30;;;;;;5095628;23;20458;-82
2021/04/23 03:29:32;;;;;;;23.97;11.10;;;7.40;98.30;;;;;;5103918;23;20762;-84
2021/04/23 03:31:34;;;;;;;24.20;11.63;;;7.40;98.30;;;;;;5104935;23;20949;-84
2021/04/23 03:33:38;;;;;;;26.27;10.93;;;7.40;98.30;;;;;;5095974;23;20485;-83
2021/04/23 03:35:41;;;;;;;9.10;4.93;;;7.50;98.30;;;;;;5094914;23;20819;-83
2021/04/23 03:37:45;;;;;;;12.63;5.57;;;7.40;98.30;;;;;;5092885;23;20560;-84
2021/04/23 03:39:47;;;;;;;19.73;5.93;;;7.40;98.30;;;;;;5104535;23;20473;-83
2021/04/23 03:41:49;;;;;;;12.67;4.20;;;7.30;98.30;;;;;;5103955;23;20513;-84
2021/04/23 03:43:51;;;;;;;15.20;4.77;;;7.30;98.30;;;;;;5104961;23;20534;-84
2021/04/23 03:45:53;;;;;;;15.13;4.87;;;7.30;98.30;;;;;;5111373;23;20474;-83
2021/04/23 03:47:55;;;;;;;15.67;4.33;;;7.20;98.30;;;;;;5103619;23;20450;-82
2021/04/23 03:49:58;;;;;;;14.00;4.73;;;7.20;98.30;;;;;;5095114;23;20454;-83
2021/04/23 03:52:00;;;;;;;11.10;4.00;;;7.20;98.30;;;;;;5104623;23;20500;-83
2021/04/23 03:54:02;;;;;;;8.30;4.53;;;7.20;98.30;;;;;;5103963;23;20468;-83
2021/04/23 03:56:06;;;;;;;10.53;5.07;;;7.20;98.30;;;;;;5103335;23;20517;-84
2021/04/23 03:58:08;;;;;;;8.23;4.03;;;7.20;98.30;;;;;;5102687;23;20468;-83
2021/04/23 04:00:13;;;;;;;18.83;9.97;;;7.20;98.30;;;;;;5101922;23;20464;-81
2021/04/23 04:02:15;;;;;;;25.40;9.40;;;7.20;98.30;;;;;;5094186;23;20454;-83
2021/04/23 04:04:17;;;;;;;32.33;12.20;;;7.20;98.30;;;;;;5095384;23;20457;-83
2021/04/23 04:06:20;;;;;;;24.10;6.37;;;7.10;98.30;;;;;;5095677;23;20479;-83
2021/04/23 04:08:22;;;;;;;16.23;6.00;;;7.10;98.30;;;;;;5094562;23;20515;-83
2021/04/23 04:10:24;;;;;;;21.40;7.47;;;7.10;98.30;;;;;;5095852;23;20460;-82
2021/04/23 04:12:26;;;;;;;19.77;5.60;;;7.00;98.30;;;;;;5103187;23;20465;-83
2021/04/23 04:14:28;;;;;;;12.87;5.30;;;7.00;98.30;;;;;;5094987;23;20485;-82
2021/04/23 04:16:30;;;;;;;18.87;5.33;;;7.10;98.30;;;;;;5095342;23;20461;-83
2021/04/23 04:18:33;;;;;;;11.23;5.27;;;7.10;98.30;;;;;;5101943;23;20763;-82
2021/04/23 04:20:38;;;;;;;15.57;5.10;;;7.10;98.30;;;;;;5103220;23;20818;-83
2021/04/23 04:22:41;;;;;;;14.40;4.73;;;7.00;98.30;;;;;;5103247;23;20453;-83
2021/04/23 04:24:43;;;;;;;12.33;5.83;;;7.00;98.30;;;;;;5095090;23;20458;-82
2021/04/23 04:26:45;;;;;;;16.03;4.60;;;7.00;98.30;;;;;;5094604;23;20458;-83
2021/04/23 04:28:47;;;;;;;11.40;5.50;;;7.00;98.30;;;;;;5093793;23;20460;-82
2021/04/23 04:30:50;;;;;;;12.83;4.23;;;7.00;98.30;;;;;;5101865;23;20457;-83
2021/04/23 04:32:57;;;;;;;13.17;5.50;;;7.00;98.30;;;;;;5094391;23;20457;-83
2021/04/23 04:34:59;;;;;;;12.30;5.27;;;7.00;98.30;;;;;;5094803;23;20468;-82
2021/04/23 04:37:01;;;;;;;14.57;5.07;;;6.90;98.30;;;;;;5094131;23;20549;-82
2021/04/23 04:39:05;;;;;;;9.37;4.33;;;7.00;98.30;;;;;;5096649;23;20487;-82
2021/04/23 04:41:07;;;;;;;10.13;4.87;;;7.00;98.30;;;;;;5096876;23;20966;-82
2021/04/23 04:43:11;;;;;;;15.73;4.63;;;7.00;98.30;;;;;;5106428;23;20460;-82
2021/04/23 04:45:17;;;;;;;8.33;3.87;;;7.10;98.30;;;;;;5109864;23;20467;-83
2021/04/23 04:47:19;;;;;;;18.53;4.53;;;7.10;98.30;;;;;;5109565;23;20462;-83
2021/04/23 04:49:21;;;;;;;12.67;5.23;;;7.00;98.30;;;;;;5090472;23;20465;-83
2021/04/23 04:51:28;;;;;;;13.30;4.67;;;7.00;98.30;;;;;;5097078;23;20458;-83
2021/04/23 04:53:31;;;;;;;15.90;5.13;;;7.10;98.30;;;;;;5100651;23;20513;-82
2021/04/23 04:55:36;;;;;;;11.73;4.60;;;7.10;98.30;;;;;;5098986;23;20464;-83
2021/04/23 04:57:39;;;;;;;16.20;5.30;;;7.10;98.30;;;;;;5090396;23;20959;-82
2021/04/23 04:59:44;;;;;;;12.40;4.53;;;7.10;98.30;;;;;;5091610;23;20540;-83
2021/04/23 05:01:46;;;;;;;19.57;8.23;;;7.20;98.30;;;;;;5091432;23;20458;-82
2021/04/23 05:03:48;;;;;;;16.03;7.70;;;7.10;98.30;;;;;;5091680;23;20465;-82
2021/04/23 05:05:50;;;;;;;15.70;5.27;;;7.20;98.30;;;;;;5099559;23;20460;-82
2021/04/23 05:07:53;;;;;;;13.37;4.53;;;7.20;98.30;;;;;;5090414;23;20962;-83
2021/04/23 05:09:54;;;;;;;21.80;10.40;;;7.20;98.30;;;;;;5091698;23;20468;-83
2021/04/23 05:11:57;;;;;;;40.83;12.43;;;7.20;98.30;;;;;;5091483;23;20468;-83
2021/04/23 05:13:59;;;;;;;12.27;5.17;;;7.10;98.30;;;;;;5099484;23;20458;-82
2021/04/23 05:16:01;;;;;;;13.13;4.70;;;7.20;98.30;;;;;;5090756;23;20523;-83
2021/04/23 05:18:04;;;;;;;10.37;3.70;;;7.20;98.30;;;;;;5089053;23;20789;-83
2021/04/23 05:20:08;;;;;;;10.93;5.10;;;7.20;98.30;;;;;;5090762;23;20509;-83
2021/04/23 05:22:10;;;;;;;11.30;4.43;;;7.30;98.30;;;;;;5099911;23;20505;-83
2021/04/23 05:24:13;;;;;;;17.70;5.60;;;7.30;98.30;;;;;;5099225;23;20955;-83
2021/04/23 05:26:15;;;;;;;27.23;11.10;;;7.30;98.30;;;;;;5090709;23;20455;-84
2021/04/23 05:28:18;;;;;;;22.50;11.13;;;7.30;98.30;;;;;;5097757;23;20922;-82
2021/04/23 05:30:23;;;;;;;14.93;5.50;;;7.30;98.30;;;;;;5099001;23;20511;-83
2021/04/23 05:32:26;;;;;;;17.37;5.70;;;7.30;98.30;;;;;;5098843;23;20541;-83
2021/04/23 05:34:28;;;;;;;8.60;3.63;;;7.40;98.30;;;;;;5099909;23;20454;-82
2021/04/23 05:36:33;;;;;;;6.40;3.60;;;7.40;98.30;;;;;;5099034;23;20486;-84
2021/04/23 05:38:34;;;;;;;10.10;5.50;;;7.40;98.30;;;;;;5098089;23;20457;-83
2021/04/23 05:40:38;;;;;;;11.73;4.47;;;7.40;98.30;;;;;;5109799;23;20451;-83
2021/04/23 05:42:43;;;;;;;18.03;4.60;;;7.50;98.30;;;;;;5110942;23;20523;-83
2021/04/23 05:44:46;;;;;;;19.57;4.87;;;7.50;98.30;;;;;;5112321;23;20454;-83
2021/04/23 05:46:48;;;;;;;8.37;4.10;;;7.60;98.30;;;;;;5101953;23;20466;-82
2021/04/23 05:48:50;;;;;;;15.10;4.70;;;7.70;98.30;;;;;;5102835;23;20458;-83
2021/04/23 05:50:53;;;;;;;14.23;4.67;;;7.70;98.30;;;;;;5099460;23;20986;-83
2021/04/23 05:52:55;;;;;;;15.63;4.60;;;7.70;98.30;;;;;;5098623;23;20454;-82
2021/04/23 05:54:57;;;;;;;12.33;4.90;;;7.70;98.30;;;;;;5091052;23;20469;-83
2021/04/23 05:57:00;;;;;;;13.77;4.87;;;7.80;98.30;;;;;;5090868;23;20858;-83
2021/04/23 05:59:03;;;;;;;11.83;4.07;;;7.80;98.30;;;;;;5091170;23;20454;-84
2021/04/23 06:01:06;;;;;;;12.47;4.13;;;7.80;98.30;;;;;;5099337;23;20451;-82
2021/04/23 06:03:08;;;;;;;14.83;5.07;;;7.80;98.30;;;;;;5098975;23;20450;-82
2021/04/23 06:05:11;;;;;;;15.87;4.17;;;7.80;98.30;;;;;;5098673;23;20492;-83
2021/04/23 06:07:16;;;;;;;14.90;4.87;;;7.80;98.30;;;;;;5097626;23;20939;-83
2021/04/23 06:09:21;;;;;;;12.20;4.07;;;7.80;98.30;;;;;;5098553;23;21137;-83
2021/04/23 06:11:23;;;;;;;14.40;4.27;;;7.90;98.30;;;;;;5090852;23;20509;-81
2021/04/23 06:13:25;;;;;;;12.43;4.53;;;8.00;98.30;;;;;;5091449;23;20458;-81
2021/04/23 06:15:28;;;;;;;12.50;4.50;;;8.10;98.30;;;;;;5091359;23;21003;-81
2021/04/23 06:17:30;;;;;;;16.47;4.70;;;8.10;98.30;;;;;;5090428;23;20789;-81
2021/04/23 06:19:33;;;;;;;10.77;4.50;;;8.10;98.30;;;;;;5091582;23;20636;-82
2021/04/23 06:21:35;;;;;;;13.40;4.40;;;8.10;98.30;;;;;;5099703;23;20451;-81
2021/04/23 06:23:38;;;;;;;15.03;4.83;;;8.20;98.30;;;;;;5099737;23;20815;-82
2021/04/23 06:25:40;;;;;;;23.13;5.73;;;8.30;98.30;;;;;;5099138;23;20474;-82
2021/04/23 06:27:43;;;;;;;13.37;4.63;;;8.30;98.30;;;;;;5089971;23;20526;-83
2021/04/23 06:29:46;;;;;;;12.37;5.30;;;8.40;98.30;;;;;;5091632;23;20462;-82
2021/04/23 06:31:51;;;;;;;21.73;5.10;;;8.50;98.30;;;;;;5091603;23;20477;-82
2021/04/23 06:33:54;;;;;;;14.77;4.60;;;8.60;98.30;;;;;;5099720;23;20518;-82
2021/04/23 06:35:56;;;;;;;10.80;3.97;;;8.60;98.30;;;;;;5092052;23;20439;-82
2021/04/23 06:37:59;;;;;;;14.87;4.87;;;8.60;98.30;;;;;;5090600;23;20810;-82
2021/04/23 06:40:01;;;;;;;17.10;5.20;;;8.60;98.30;;;;;;5091224;23;20465;-83
2021/04/23 06:42:12;;;;;;;20.17;8.30;;;8.70;98.30;;;;;;5100678;23;20450;-82
2021/04/23 06:44:15;;;;;;;47.87;24.70;;;8.80;98.30;;;;;;5093142;23;20783;-81
2021/04/23 06:46:17;;;;;;;14.47;5.57;;;8.90;98.30;;;;;;5092776;23;20779;-81
2021/04/23 06:48:23;;;;;;;21.30;4.90;;;9.00;98.30;;;;;;5094958;23;20543;-82
2021/04/23 06:50:26;;;;;;;10.63;4.07;;;9.00;98.30;;;;;;5096702;23;20450;-82
2021/04/23 06:52:28;;;;;;;20.80;5.50;;;9.00;98.30;;;;;;5098006;23;20534;-82
2021/04/23 06:54:33;;;;;;;16.80;5.73;;;9.10;98.30;;;;;;5097457;23;20459;-83
2021/04/23 06:56:35;;;;;;;11.90;4.20;;;9.10;98.30;;;;;;5094205;23;20522;-84
2021/04/23 06:58:37;;;;;;;11.13;4.60;;;9.10;98.30;;;;;;5091896;23;20458;-84
2021/04/23 07:00:40;;;;;;;16.97;5.03;;;9.00;98.30;;;;;;5092313;23;20491;-83
2021/04/23 07:02:42;;;;;;;11.90;5.60;;;9.10;98.30;;;;;;5088823;23;20465;-84
2021/04/23 07:04:44;;;;;;;15.47;4.33;;;9.20;98.30;;;;;;5089804;23;20516;-83
2021/04/23 07:06:50;;;;;;;20.70;4.10;;;9.20;98.30;;;;;;5097204;23;20454;-82
2021/04/23 07:08:54;;;;;;;13.77;5.23;;;9.20;98.30;;;;;;5092409;23;20417;-82
2021/04/23 07:10:56;;;;;;;23.43;5.63;;;9.30;98.30;;;;;;5098972;23;20427;-82
2021/04/23 07:13:04;;;;;;;10.93;5.00;;;9.40;98.30;;;;;;5097306;23;20774;-82
2021/04/23 07:15:11;;;;;;;18.47;4.83;;;9.50;98.30;;;;;;5089853;23;20457;-82
2021/04/23 07:17:28;;;;;;;14.40;4.70;;;9.50;98.30;;;;;;5091784;23;20865;-82
2021/04/23 07:19:57;;;;;;;14.17;5.30;;;9.50;98.30;;;;;;5082927;23;21088;-83
2021/04/23 07:22:05;;;;;;;17.63;4.53;;;9.60;98.30;;;;;;5096737;23;21319;-83
2021/04/23 07:24:08;;;;;;;14.90;4.77;;;9.70;98.30;;;;;;5099167;23;20450;-83
2021/04/23 07:26:24;;;;;;;13.77;4.93;;;9.70;98.30;;;;;;5099965;23;21248;-83
2021/04/23 07:28:26;;;;;;;19.93;4.97;;;9.70;98.10;;;;;;5098263;23;20454;-82
2021/04/23 07:30:30;;;;;;;11.27;4.30;;;9.70;98.30;;;;;;5097800;23;20481;-82
2021/04/23 07:32:32;;;;;;;18.90;4.50;;;9.70;98.30;;;;;;5097646;23;20757;-83
2021/04/23 07:34:35;;;;;;;19.43;3.70;;;9.80;97.70;;;;;;5098432;23;20506;-82
2021/04/23 07:36:51;;;;;;;13.97;5.07;;;9.80;97.70;;;;;;5096859;23;21170;-83
2021/04/23 07:38:56;;;;;;;13.27;4.50;;;9.90;97.00;;;;;;5095883;23;20429;-83
2021/04/23 07:40:59;;;;;;;12.73;4.60;;;10.00;96.60;;;;;;5090888;23;21305;-83
2021/04/23 07:43:02;;;;;;;17.77;4.77;;;10.10;95.20;;;;;;5096815;23;20451;-82
2021/04/23 07:45:24;;;;;;;12.53;5.40;;;10.10;95.30;;;;;;5097799;23;20850;-82
2021/04/23 07:47:38;;;;;;;11.30;4.07;;;10.30;95.60;;;;;;5097656;23;20429;-83
2021/04/23 07:49:46;;;;;;;10.77;4.70;;;10.50;95.80;;;;;;5097665;23;20432;-83
2021/04/23 07:51:53;;;;;;;11.40;4.43;;;10.70;95.20;;;;;;5097672;23;20453;-83
2021/04/23 07:54:06;;;;;;;11.63;4.17;;;10.70;94.20;;;;;;5098742;23;20451;-82
2021/04/23 07:56:26;;;;;;;10.57;4.50;;;10.70;92.00;;;;;;5098264;23;20930;-83
2021/04/23 07:58:31;;;;;;;15.63;4.43;;;10.60;91.70;;;;;;5098154;23;20981;-83
2021/04/23 08:00:33;;;;;;;12.43;4.83;;;10.60;91.70;;;;;;5099015;23;20911;-82
2021/04/23 08:02:36;;;;;;;12.10;4.40;;;10.50;92.50;;;;;;5097682;23;20534;-83
2021/04/23 08:04:40;;;;;;;13.83;4.30;;;10.60;92.90;;;;;;5097830;23;20436;-82
2021/04/23 08:06:42;;;;;;;10.70;3.87;;;10.80;92.80;;;;;;5096929;23;20450;-82
2021/04/23 08:08:53;;;;;;;12.13;4.10;;;11.00;92.50;;;;;;5098032;23;20831;-82
2021/04/23 08:11:02;;;;;;;9.77;3.60;;;11.10;90.60;;;;;;5098481;23;20424;-83
2021/04/23 08:13:05;;;;;;;10.77;4.60;;;11.20;90.00;;;;;;5097683;23;20508;-83
2021/04/23 08:15:08;;;;;;;7.60;3.47;;;11.30;89.10;;;;;;5097871;23;20480;-83
2021/04/23 08:17:11;;;;;;;12.73;4.13;;;11.40;88.10;;;;;;5098070;23;20460;-83
2021/04/23 08:19:13;;;;;;;8.23;4.30;;;11.40;88.10;;;;;;5097325;23;20980;-83
2021/04/23 08:21:15;;;;;;;15.43;4.00;;;11.50;88.70;;;;;;5089855;23;20866;-84
2021/04/23 08:24:00;;;;;;;8.33;3.47;;;11.70;89.60;;;;;;5098942;23;20535;-84
2021/04/23 08:26:07;;;;;;;9.00;3.83;;;12.10;89.00;;;;;;5097056;23;20458;-83
2021/04/23 08:28:09;;;;;;;8.10;4.50;;;12.40;86.50;;;;;;5097649;23;20526;-83
2021/04/23 08:30:15;;;;;;;9.57;4.10;;;12.40;86.20;;;;;;5091066;23;20977;-84
2021/04/23 08:32:17;;;;;;;8.67;3.50;;;12.70;85.60;;;;;;5091595;23;20891;-83
2021/04/23 08:34:19;;;;;;;14.27;6.50;;;12.80;85.00;;;;;;5099361;23;20503;-83
2021/04/23 08:36:21;;;;;;;18.93;6.37;;;12.90;84.10;;;;;;5098804;23;20558;-83
2021/04/23 08:38:24;;;;;;;14.53;5.90;;;12.70;83.60;;;;;;5098385;23;20489;-82
2021/04/23 08:40:26;;;;;;;12.50;5.07;;;12.50;84.00;;;;;;5090979;23;20517;-83
2021/04/23 08:42:29;;;;;;;13.17;6.50;;;12.40;83.20;;;;;;5090768;23;20514;-83
2021/04/23 08:44:31;;;;;;;19.90;5.63;;;12.40;83.90;;;;;;5099346;23;20474;-83
2021/04/23 08:46:42;;;;;;;13.30;5.03;;;12.50;83.90;;;;;;5099258;23;20458;-83
2021/04/23 08:48:45;;;;;;;12.57;4.40;;;12.50;82.40;;;;;;5090983;23;20454;-83
2021/04/23 08:50:47;;;;;;;10.23;4.93;;;12.40;82.20;;;;;;5090006;23;20474;-84
2021/04/23 08:52:50;;;;;;;20.13;5.40;;;12.40;82.90;;;;;;5098650;23;20964;-84
2021/04/23 08:54:58;;;;;;;10.17;4.07;;;12.60;83.40;;;;;;5088867;23;20451;-84
2021/04/23 08:57:00;;;;;;;21.67;7.70;;;12.70;81.60;;;;;;5097662;23;20502;-84
2021/04/23 09:00:06;;;;;;;;;;;;;;;;;;;;;
2021/04/23 09:02:27;;;;;;;11.73;5.07;;;12.80;80.30;;;;;;5076669;23;20513;-85
2021/04/23 09:04:30;;;;;;;8.63;3.73;;;12.90;80.10;;;;;;5098670;23;20450;-83
2021/04/23 09:06:32;;;;;;;8.80;4.47;;;13.00;78.40;;;;;;5096336;23;20545;-85
2021/04/23 09:09:10;;;;;;;10.97;4.50;;;13.10;78.20;;;;;;5098746;23;20437;-84
2021/04/23 09:11:30;;;;;;;8.90;3.80;;;13.20;79.10;;;;;;5098266;23;20567;-84
2021/04/23 09:13:32;;;;;;;9.03;4.53;;;13.30;77.80;;;;;;5097571;23;20534;-83
2021/04/23 09:15:41;;;;;;;13.73;3.73;;;13.50;78.40;;;;;;5096038;23;20446;-85
2021/04/23 09:17:45;;;;;;;9.03;3.97;;;13.70;77.70;;;;;;5097240;23;20505;-84
2021/04/23 09:19:50;;;;;;;7.20;3.90;;;13.60;76.30;;;;;;5095873;23;20993;-85
2021/04/23 09:21:55;;;;;;;9.47;4.43;;;13.40;77.10;;;;;;5089209;23;20462;-86
2021/04/23 09:23:57;;;;;;;7.83;3.20;;;13.70;77.20;;;;;;5096739;23;20521;-87
2021/04/23 09:28:36;;;;;;;11.70;4.17;;;14.20;78.60;;;;;;5063895;23;20780;-87
2021/04/23 09:30:43;;;;;;;16.27;10.00;;;14.40;76.80;;;;;;5098280;23;20554;-84
2021/04/23 09:32:45;;;;;;;12.70;7.57;;;14.50;76.00;;;;;;5090301;23;20465;-85
2021/04/23 09:34:53;;;;;;;12.80;4.87;;;14.50;74.00;;;;;;5090509;23;20491;-85
2021/04/23 09:36:55;;;;;;;10.43;3.93;;;14.20;73.90;;;;;;5090859;23;20454;-85
2021/04/23 09:39:08;;;;;;;11.20;5.53;;;14.20;73.80;;;;;;5099158;23;20461;-84
2021/04/23 09:41:19;;;;;;;6.33;3.63;;;14.40;75.00;;;;;;5098217;23;20461;-86
2021/04/23 09:43:36;;;;;;;26.53;14.70;;;14.60;74.10;;;;;;5099138;23;20450;-84
2021/04/23 09:45:49;;;;;;;29.27;13.67;;;14.60;72.70;;;;;;5091340;23;21177;-85
2021/04/23 09:47:53;;;;;;;8.90;4.80;;;14.60;72.50;;;;;;5089534;23;20529;-85
2021/04/23 09:49:58;;;;;;;9.80;4.80;;;14.70;72.80;;;;;;5093596;23;20474;-85
2021/04/23 09:52:02;;;;;;;9.93;3.90;;;14.70;73.10;;;;;;5093613;23;20465;-84
2021/04/23 09:54:12;;;;;;;10.30;4.10;;;14.80;73.50;;;;;;5101597;23;20975;-84
2021/04/23 09:56:32;;;;;;;7.70;4.43;;;15.00;74.10;;;;;;5101883;23;20537;-84
2021/04/23 09:58:34;;;;;;;6.93;3.60;;;15.50;74.80;;;;;;5100531;23;21191;-84
2021/04/23 10:00:40;;;;;;;13.13;4.00;;;15.70;73.30;;;;;;5100507;23;20453;-85
2021/04/23 10:02:42;;;;;;;8.23;4.27;;;15.70;73.00;;;;;;5099731;23;20864;-84
2021/04/23 10:04:45;;;;;;;11.03;3.80;;;15.70;72.10;;;;;;5091411;23;20458;-84
2021/04/23 10:06:46;;;;;;;14.40;7.67;;;15.80;71.70;;;;;;5100077;23;21019;-85
2021/04/23 10:09:07;;;;;;;22.27;14.67;;;15.70;69.30;;;;;;5101333;23;20501;-84
2021/04/23 10:11:09;;;;;;;12.07;4.40;;;15.90;69.80;;;;;;5101590;23;20466;-84
2021/04/23 10:13:15;;;;;;;13.13;4.20;;;15.50;71.50;;;;;;5093590;23;20490;-85
2021/04/23 10:15:23;;;;;;;9.33;4.20;;;15.30;72.10;;;;;;5101589;23;20832;-84
2021/04/23 10:17:25;;;;;;;29.23;15.50;;;15.20;72.60;;;;;;5102419;23;20454;-84
2021/04/23 10:26:17;;;;;;;11.13;4.60;;;16.30;71.00;;;;;;4803330;24;21030;-85
2021/04/23 10:28:21;;;;;;;9.80;5.07;;;16.20;70.30;;;;;;5001515;23;20538;-85
2021/04/23 10:30:25;;;;;;;9.20;4.30;;;16.30;70.20;;;;;;5001950;23;20986;-85
2021/04/23 10:32:39;;;;;;;11.47;5.70;;;16.40;69.40;;;;;;5002292;23;20905;-85
2021/04/23 10:34:43;;;;;;;13.20;4.50;;;16.50;70.10;;;;;;5002534;23;20455;-85
2021/04/23 10:36:45;;;;;;;7.93;4.00;;;16.80;70.10;;;;;;5002357;23;20538;-84
2021/04/23 10:38:51;;;;;;;33.30;19.13;;;16.90;69.30;;;;;;5002173;23;20841;-85
2021/04/23 10:40:56;;;;;;;13.80;7.80;;;16.90;70.20;;;;;;5002888;23;21163;-85
2021/04/23 10:43:12;;;;;;;11.47;4.80;;;17.10;68.20;;;;;;5002808;23;20481;-85
2021/04/23 10:45:25;;;;;;;8.23;5.33;;;17.30;67.40;;;;;;5002212;23;20454;-85
2021/04/23 10:47:31;;;;;;;6.80;4.47;;;17.40;66.70;;;;;;5002368;23;20565;-86
2021/04/23 10:49:36;;;;;;;15.10;4.90;;;17.60;66.20;;;;;;5002648;23;20548;-85
2021/04/23 10:51:38;;;;;;;9.87;4.10;;;17.70;67.00;;;;;;5002477;23;20976;-85
2021/04/23 10:53:44;;;;;;;8.00;3.80;;;17.80;67.00;;;;;;4994638;23;20925;-85
2021/04/23 10:55:51;;;;;;;13.50;8.57;;;18.00;66.40;;;;;;5001998;23;20474;-85
2021/04/23 10:57:54;;;;;;;13.63;10.40;;;18.10;65.20;;;;;;5002479;23;20458;-84
2021/04/23 10:59:57;;;;;;;7.93;4.33;;;17.90;65.80;;;;;;5040158;23;20450;-85